createdAt,value
2023-05-19T00:01:15.335Z,9.08
2023-05-19T00:04:05.157Z,9.03
2023-05-19T00:06:32.900Z,8.88
2023-05-19T00:09:01.987Z,8.78
2023-05-19T00:11:29.529Z,8.93
2023-05-19T00:13:59.130Z,8.82
2023-05-19T00:16:28.161Z,8.81
2023-05-19T00:18:55.404Z,8.83
2023-05-19T00:21:22.098Z,8.78
2023-05-19T00:23:49.131Z,8.65
2023-05-19T00:26:15.811Z,8.74
2023-05-19T00:28:51.414Z,8.76
2023-05-19T00:31:18.512Z,8.64
2023-05-19T00:33:45.398Z,8.59
2023-05-19T00:36:12.896Z,8.63
2023-05-19T00:38:39.748Z,8.68
2023-05-19T00:41:07.092Z,8.61
2023-05-19T00:43:37.093Z,8.63
2023-05-19T00:46:04.437Z,8.56
2023-05-19T00:48:31.079Z,8.58
2023-05-19T00:51:04.908Z,8.52
2023-05-19T00:53:33.769Z,8.41
2023-05-19T00:56:01.689Z,8.40
2023-05-19T00:58:30.484Z,8.37
2023-05-19T01:01:07.310Z,8.27
2023-05-19T01:03:35.822Z,8.33
2023-05-19T01:06:07.350Z,8.26
2023-05-19T01:08:38.380Z,8.16
2023-05-19T01:11:06.805Z,8.11
2023-05-19T01:13:38.147Z,8.04
2023-05-19T01:16:12.785Z,8.03
2023-05-19T01:18:40.091Z,8.04
2023-05-19T01:21:45.150Z,8.09
2023-05-19T01:24:39.951Z,8.04
2023-05-19T01:27:33.738Z,8.00
2023-05-19T01:30:25.652Z,7.95
2023-05-19T01:32:59.866Z,7.96
2023-05-19T01:35:28.012Z,8.03
2023-05-19T01:37:59.386Z,7.95
2023-05-19T01:40:27.323Z,7.95
2023-05-19T01:42:57.821Z,7.89
2023-05-19T01:45:28.686Z,7.82
2023-05-19T01:47:57.873Z,7.74
2023-05-19T01:50:26.019Z,7.75
2023-05-19T01:52:52.736Z,7.72
2023-05-19T01:55:21.243Z,7.77
2023-05-19T01:57:50.998Z,7.79
2023-05-19T02:00:26.759Z,7.83
2023-05-19T02:03:15.520Z,7.79
2023-05-19T02:06:22.828Z,7.90
2023-05-19T02:09:16.078Z,7.81
2023-05-19T02:11:54.692Z,7.71
2023-05-19T02:14:30.152Z,7.71
2023-05-19T02:16:59.096Z,7.83
2023-05-19T02:19:29.356Z,7.72
2023-05-19T02:21:57.017Z,7.63
2023-05-19T02:24:23.842Z,7.62
2023-05-19T02:26:52.121Z,7.61
2023-05-19T02:29:21.806Z,7.67
2023-05-19T02:31:50.343Z,7.56
2023-05-19T02:34:17.004Z,7.54
2023-05-19T02:36:43.695Z,7.62
2023-05-19T02:39:11.122Z,7.49
2023-05-19T02:41:39.643Z,7.45
2023-05-19T02:44:06.402Z,7.42
2023-05-19T02:46:34.107Z,7.43
2023-05-19T02:49:00.782Z,7.44
2023-05-19T02:51:27.722Z,7.48
2023-05-19T02:53:54.557Z,7.50
2023-05-19T02:56:21.740Z,7.44
2023-05-19T02:58:48.418Z,7.51
2023-05-19T03:01:15.815Z,7.50
2023-05-19T03:03:42.569Z,7.44
2023-05-19T03:06:09.515Z,7.50
2023-05-19T03:08:40.132Z,7.43
2023-05-19T03:11:09.257Z,7.45
2023-05-19T03:13:35.877Z,7.50
2023-05-19T03:16:03.469Z,7.45
2023-05-19T03:18:30.666Z,7.56
2023-05-19T03:20:57.716Z,7.54
2023-05-19T03:23:24.771Z,7.47
2023-05-19T03:25:51.681Z,7.36
2023-05-19T03:28:18.314Z,7.28
2023-05-19T03:30:45.247Z,7.29
2023-05-19T03:33:17.279Z,7.20
2023-05-19T03:35:44.780Z,7.22
2023-05-19T03:38:12.171Z,7.16
2023-05-19T03:40:41.809Z,7.19
2023-05-19T03:43:11.052Z,7.24
2023-05-19T03:45:45.398Z,7.17
2023-05-19T03:48:32.723Z,7.07
2023-05-19T03:51:23.223Z,7.06
2023-05-19T03:53:53.246Z,7.02
2023-05-19T03:56:23.030Z,7.04
2023-05-19T03:58:49.927Z,7.12
2023-05-19T04:01:16.606Z,7.14
2023-05-19T04:03:43.512Z,7.08
2023-05-19T04:06:10.155Z,7.02
2023-05-19T04:08:36.888Z,7.16
2023-05-19T04:11:04.606Z,7.15
2023-05-19T04:13:33.967Z,7.11
2023-05-19T04:16:01.431Z,7.11
2023-05-19T04:18:29.196Z,7.13
2023-05-19T04:20:56.239Z,7.21
2023-05-19T04:23:23.224Z,7.29
2023-05-19T04:25:50.055Z,7.31
2023-05-19T04:28:18.204Z,7.34
2023-05-19T04:30:46.536Z,7.39
2023-05-19T04:33:13.962Z,7.45
2023-05-19T04:35:42.130Z,7.52
2023-05-19T04:38:12.026Z,7.61
2023-05-19T04:40:40.413Z,7.63
2023-05-19T04:43:09.495Z,7.67
2023-05-19T04:45:37.725Z,7.76
2023-05-19T04:48:05.333Z,8.52
2023-05-19T04:50:32.769Z,9.55
2023-05-19T04:53:00.480Z,10.41
2023-05-19T04:55:27.589Z,10.80
2023-05-19T04:57:54.235Z,11.18
2023-05-19T05:00:23.022Z,11.37
2023-05-19T05:02:57.679Z,10.93
2023-05-19T05:05:26.064Z,10.39
2023-05-19T05:07:54.055Z,9.70
2023-05-19T05:10:22.339Z,9.43
2023-05-19T05:12:49.839Z,10.05
2023-05-19T05:15:17.501Z,11.12
2023-05-19T05:17:46.674Z,11.88
2023-05-19T05:20:14.350Z,12.39
2023-05-19T05:22:42.107Z,12.71
2023-05-19T05:25:10.050Z,12.94
2023-05-19T05:27:37.773Z,13.32
2023-05-19T05:30:06.911Z,13.22
2023-05-19T05:32:33.989Z,13.43
2023-05-19T05:35:03.230Z,13.82
2023-05-19T05:37:31.181Z,14.04
2023-05-19T05:39:57.936Z,13.26
2023-05-19T05:42:25.325Z,13.16
2023-05-19T05:44:53.033Z,13.41
2023-05-19T05:47:20.225Z,13.60
2023-05-19T05:49:48.740Z,13.52
2023-05-19T05:52:19.737Z,13.64
2023-05-19T05:54:51.179Z,13.64
2023-05-19T05:57:19.960Z,13.88
2023-05-19T05:59:47.321Z,14.14
2023-05-19T06:02:14.794Z,13.39
2023-05-19T06:04:41.762Z,13.03
2023-05-19T06:07:08.937Z,13.05
2023-05-19T06:09:37.965Z,13.22
2023-05-19T06:12:07.350Z,13.18
2023-05-19T06:14:39.799Z,13.63
2023-05-19T06:17:36.124Z,14.00
2023-05-19T06:20:05.519Z,14.53
2023-05-19T06:22:32.376Z,14.80
2023-05-19T06:25:00.700Z,15.44
2023-05-19T06:27:27.643Z,14.95
2023-05-19T06:29:54.474Z,14.79
2023-05-19T06:32:21.521Z,14.50
2023-05-19T06:34:54.293Z,14.48
2023-05-19T06:37:24.285Z,14.71
2023-05-19T06:39:53.046Z,14.90
2023-05-19T06:42:24.153Z,14.96
2023-05-19T06:45:11.014Z,15.58
2023-05-19T06:47:40.939Z,15.74
2023-05-19T06:50:08.991Z,15.91
2023-05-19T06:52:37.732Z,15.80
2023-05-19T06:55:04.827Z,15.82
2023-05-19T06:57:32.744Z,16.05
2023-05-19T07:00:01.202Z,15.83
2023-05-19T07:02:28.347Z,15.53
2023-05-19T07:04:55.418Z,15.31
2023-05-19T07:07:22.692Z,15.53
2023-05-19T07:09:50.367Z,16.01
2023-05-19T07:12:17.837Z,16.35
2023-05-19T07:14:44.751Z,16.30
2023-05-19T07:17:12.923Z,16.36
2023-05-19T07:19:43.792Z,16.55
2023-05-19T07:22:10.511Z,17.46
2023-05-19T07:24:37.238Z,17.61
2023-05-19T07:27:04.413Z,17.23
2023-05-19T07:29:31.410Z,17.12
2023-05-19T07:31:58.566Z,16.83
2023-05-19T07:34:25.338Z,17.39
2023-05-19T07:36:52.191Z,18.33
2023-05-19T07:39:19.337Z,18.73
2023-05-19T07:41:52.577Z,18.70
2023-05-19T07:44:19.394Z,18.80
2023-05-19T07:46:46.250Z,19.11
2023-05-19T07:49:13.037Z,19.31
2023-05-19T07:51:41.995Z,18.85
2023-05-19T07:54:08.955Z,18.85
2023-05-19T07:56:35.715Z,19.42
2023-05-19T07:59:04.773Z,19.83
2023-05-19T08:01:32.950Z,19.57
2023-05-19T08:04:00.231Z,19.62
2023-05-19T08:06:28.076Z,19.98
2023-05-19T08:08:54.690Z,20.11
2023-05-19T08:11:21.633Z,20.30
2023-05-19T08:13:51.775Z,19.90
2023-05-19T08:16:18.746Z,20.17
2023-05-19T08:18:45.524Z,19.89
2023-05-19T08:21:12.340Z,20.07
2023-05-19T08:23:39.100Z,20.31
2023-05-19T08:26:05.843Z,20.38
2023-05-19T08:28:33.602Z,20.34
2023-05-19T08:31:00.534Z,20.52
2023-05-19T08:33:27.384Z,20.91
2023-05-19T08:35:57.574Z,20.80
2023-05-19T08:38:28.224Z,20.89
2023-05-19T08:40:55.247Z,21.27
2023-05-19T08:43:22.151Z,20.89
2023-05-19T08:45:48.913Z,20.85
2023-05-19T08:48:18.338Z,20.44
2023-05-19T08:51:00.619Z,21.07
2023-05-19T08:53:36.697Z,20.73
2023-05-19T08:56:17.971Z,21.26
2023-05-19T08:58:46.024Z,21.39
2023-05-19T09:01:17.117Z,21.50
2023-05-19T09:03:47.486Z,20.91
2023-05-19T09:06:14.472Z,21.53
2023-05-19T09:08:42.540Z,21.92
2023-05-19T09:11:10.263Z,21.12
2023-05-19T09:13:36.970Z,21.06
2023-05-19T09:16:04.560Z,20.97
2023-05-19T09:18:31.892Z,21.17
2023-05-19T09:21:03.217Z,21.25
2023-05-19T09:23:34.133Z,21.40
2023-05-19T09:26:07.767Z,21.44
2023-05-19T09:28:36.364Z,20.68
2023-05-19T09:31:09.975Z,20.01
2023-05-19T09:33:45.500Z,19.46
2023-05-19T09:36:13.629Z,18.86
2023-05-19T09:38:40.521Z,18.34
2023-05-19T09:41:09.171Z,18.49
2023-05-19T09:43:36.381Z,18.65
2023-05-19T09:46:09.218Z,19.06
2023-05-19T09:48:37.589Z,19.71
2023-05-19T09:51:07.577Z,19.37
2023-05-19T09:53:34.803Z,19.05
2023-05-19T09:56:02.422Z,19.13
2023-05-19T09:58:37.063Z,18.90
2023-05-19T10:01:05.359Z,18.53
2023-05-19T10:03:33.475Z,18.73
2023-05-19T10:06:04.968Z,18.86
2023-05-19T10:08:33.726Z,19.14
2023-05-19T10:11:01.079Z,19.74
2023-05-19T10:13:29.703Z,19.36
2023-05-19T10:15:59.788Z,19.44
2023-05-19T10:18:27.909Z,19.25
2023-05-19T10:20:56.076Z,18.95
2023-05-19T10:23:24.040Z,19.06
2023-05-19T10:25:54.792Z,18.96
2023-05-19T10:28:25.411Z,18.68
2023-05-19T10:30:56.834Z,18.79
2023-05-19T10:33:43.763Z,19.01
2023-05-19T10:36:35.413Z,19.40
2023-05-19T10:39:09.827Z,19.17
2023-05-19T10:42:08.946Z,18.94
2023-05-19T10:44:54.553Z,18.87
2023-05-19T10:47:25.453Z,18.73
2023-05-19T10:49:55.912Z,18.47
2023-05-19T10:52:29.625Z,18.26
2023-05-19T10:54:58.400Z,18.51
2023-05-19T10:57:32.156Z,18.27
2023-05-19T11:00:11.670Z,18.46
2023-05-19T11:02:43.182Z,18.92
2023-05-19T11:05:16.271Z,19.18
2023-05-19T11:07:47.793Z,18.98
2023-05-19T11:10:22.429Z,18.68
2023-05-19T11:15:18.597Z,18.79
2023-05-19T11:17:48.901Z,19.00
2023-05-19T11:20:26.998Z,18.89
2023-05-19T11:23:05.801Z,19.10
2023-05-19T11:25:44.747Z,18.97
2023-05-19T11:28:14.416Z,19.05
2023-05-19T11:30:46.836Z,19.24
2023-05-19T11:33:14.133Z,19.11
2023-05-19T11:35:41.434Z,19.13
2023-05-19T11:38:08.708Z,19.63
2023-05-19T11:40:35.862Z,19.48
2023-05-19T11:43:02.675Z,19.37
2023-05-19T11:45:32.681Z,19.49
2023-05-19T11:48:03.154Z,19.71
2023-05-19T11:50:31.875Z,19.51
2023-05-19T11:53:00.948Z,19.59
2023-05-19T11:55:27.928Z,19.65
2023-05-19T11:58:03.970Z,19.79
2023-05-19T12:00:39.320Z,19.64
2023-05-19T12:03:06.871Z,19.44
2023-05-19T12:05:39.945Z,19.48
2023-05-19T12:08:08.979Z,19.72
2023-05-19T12:10:35.913Z,19.75
2023-05-19T12:13:06.313Z,19.50
2023-05-19T12:15:33.706Z,19.71
2023-05-19T12:18:02.125Z,19.54
2023-05-19T12:20:35.627Z,19.55
2023-05-19T12:23:03.696Z,19.60
2023-05-19T12:25:31.744Z,19.94
2023-05-19T12:28:00.477Z,19.95
2023-05-19T12:30:29.004Z,20.02
2023-05-19T12:32:57.838Z,19.76
2023-05-19T12:35:30.040Z,19.90
2023-05-19T12:37:57.712Z,20.28
2023-05-19T12:40:26.206Z,20.30
2023-05-19T12:42:59.110Z,20.24
2023-05-19T12:45:28.320Z,20.11
2023-05-19T12:47:56.209Z,20.09
2023-05-19T12:50:31.401Z,20.36
2023-05-19T12:52:59.898Z,20.29
2023-05-19T12:55:26.848Z,20.17
2023-05-19T12:57:59.551Z,20.13
2023-05-19T13:00:29.011Z,20.38
2023-05-19T13:03:01.756Z,20.60
2023-05-19T13:05:30.433Z,20.58
2023-05-19T13:07:58.866Z,20.54
2023-05-19T13:10:29.744Z,20.36
2023-05-19T13:12:57.042Z,20.17
2023-05-19T13:15:26.151Z,20.06
2023-05-19T13:17:54.122Z,19.93
2023-05-19T13:20:21.892Z,19.95
2023-05-19T13:22:49.615Z,19.65
2023-05-19T13:25:16.383Z,19.88
2023-05-19T13:27:45.974Z,20.06
2023-05-19T13:30:18.636Z,20.20
2023-05-19T13:32:46.014Z,20.12
2023-05-19T13:35:14.999Z,19.84
2023-05-19T13:37:42.748Z,19.99
2023-05-19T13:40:10.176Z,19.93
2023-05-19T13:42:37.011Z,19.89
2023-05-19T13:45:05.112Z,19.87
2023-05-19T13:47:32.186Z,19.98
2023-05-19T13:49:58.858Z,20.27
2023-05-19T13:52:28.141Z,20.29
2023-05-19T13:54:56.684Z,20.24
2023-05-19T13:57:24.053Z,20.07
2023-05-19T14:00:01.759Z,20.00
2023-05-19T14:02:39.612Z,19.73
2023-05-19T14:05:07.493Z,19.82
2023-05-19T14:07:35.126Z,19.93
2023-05-19T14:10:03.938Z,20.25
2023-05-19T14:12:41.593Z,20.12
2023-05-19T14:15:17.632Z,20.09
2023-05-19T14:17:44.432Z,20.05
2023-05-19T14:20:12.090Z,20.14
2023-05-19T14:22:38.683Z,20.13
2023-05-19T14:25:05.959Z,20.03
2023-05-19T14:27:34.594Z,20.00
2023-05-19T14:30:01.366Z,20.21
2023-05-19T14:32:30.210Z,20.08
2023-05-19T14:34:57.462Z,20.11
2023-05-19T14:37:26.524Z,20.37
2023-05-19T14:39:53.591Z,20.10
2023-05-19T14:42:20.124Z,19.98
2023-05-19T14:44:46.833Z,20.28
2023-05-19T14:47:13.852Z,20.01
2023-05-19T14:49:40.770Z,20.14
2023-05-19T14:52:07.512Z,20.18
2023-05-19T14:54:34.373Z,20.23
2023-05-19T14:57:01.638Z,20.28
2023-05-19T14:59:29.718Z,20.09
2023-05-19T15:01:56.332Z,20.25
2023-05-19T15:04:23.263Z,20.27
2023-05-19T15:06:58.130Z,20.39
2023-05-19T15:09:32.422Z,20.36
2023-05-19T15:12:01.277Z,20.22
2023-05-19T15:14:30.478Z,20.48
2023-05-19T15:16:58.044Z,20.17
2023-05-19T15:19:25.034Z,20.34
2023-05-19T15:21:51.775Z,20.40
2023-05-19T15:24:19.172Z,20.59
2023-05-19T15:26:47.180Z,20.44
2023-05-19T15:29:13.885Z,20.46
2023-05-19T15:31:40.729Z,20.52
2023-05-19T15:34:07.531Z,20.50
2023-05-19T15:36:34.246Z,20.46
2023-05-19T15:39:01.039Z,20.36
2023-05-19T15:41:27.994Z,20.40
2023-05-19T15:43:54.908Z,20.34
2023-05-19T15:46:21.674Z,20.60
2023-05-19T15:48:48.312Z,20.65
2023-05-19T15:51:15.063Z,20.56
2023-05-19T15:53:42.057Z,20.52
2023-05-19T15:56:08.997Z,20.38
2023-05-19T15:58:35.855Z,20.23
2023-05-19T16:01:02.986Z,20.33
2023-05-19T16:03:30.231Z,20.63
2023-05-19T16:05:57.158Z,20.42
2023-05-19T16:08:24.060Z,20.36
2023-05-19T16:10:51.903Z,20.09
2023-05-19T16:13:18.799Z,20.40
2023-05-19T16:15:45.803Z,20.00
2023-05-19T16:18:14.073Z,20.26
2023-05-19T16:20:41.060Z,20.11
2023-05-19T16:23:08.003Z,20.33
2023-05-19T16:25:34.826Z,20.20
2023-05-19T16:28:01.731Z,20.40
2023-05-19T16:30:28.592Z,20.30
2023-05-19T16:32:55.449Z,20.21
2023-05-19T16:35:22.355Z,19.99
2023-05-19T16:37:49.214Z,20.00
2023-05-19T16:40:15.885Z,20.06
2023-05-19T16:42:42.719Z,19.96
2023-05-19T16:45:10.005Z,20.14
2023-05-19T16:47:36.938Z,20.07
2023-05-19T16:50:04.227Z,20.25
2023-05-19T16:52:31.121Z,20.17
2023-05-19T16:54:57.978Z,20.18
2023-05-19T16:57:24.639Z,20.19
2023-05-19T16:59:51.426Z,20.07
2023-05-19T17:02:18.499Z,19.83
2023-05-19T17:04:45.175Z,19.72
2023-05-19T17:07:15.748Z,19.75
2023-05-19T17:09:43.449Z,19.97
2023-05-19T17:12:10.941Z,20.30
2023-05-19T17:14:37.784Z,20.32
2023-05-19T17:17:04.867Z,20.68
2023-05-19T17:19:32.037Z,20.48
2023-05-19T17:22:02.115Z,20.57
2023-05-19T17:24:29.088Z,20.39
2023-05-19T17:26:55.859Z,20.45
2023-05-19T17:29:22.600Z,20.38
2023-05-19T17:31:49.339Z,20.37
2023-05-19T17:34:16.018Z,20.69
2023-05-19T17:36:42.822Z,20.30
2023-05-19T17:39:09.500Z,20.36
2023-05-19T17:41:36.394Z,19.74
2023-05-19T17:44:03.895Z,19.49
2023-05-19T17:46:34.681Z,19.47
2023-05-19T17:49:02.006Z,19.37
2023-05-19T17:51:29.057Z,19.18
2023-05-19T17:53:55.915Z,19.12
2023-05-19T17:56:23.009Z,18.91
2023-05-19T17:58:50.066Z,18.71
2023-05-19T18:01:18.068Z,18.65
2023-05-19T18:03:49.523Z,18.71
2023-05-19T18:06:20.645Z,18.73
2023-05-19T18:08:50.576Z,18.70
2023-05-19T18:11:18.575Z,18.79
2023-05-19T18:13:45.604Z,18.88
2023-05-19T18:16:12.721Z,18.87
2023-05-19T18:18:43.590Z,18.73
2023-05-19T18:21:17.978Z,18.68
2023-05-19T18:23:45.805Z,18.45
2023-05-19T18:26:16.070Z,18.34
2023-05-19T18:28:43.389Z,18.38
2023-05-19T18:31:15.836Z,18.21
2023-05-19T18:33:43.225Z,17.97
2023-05-19T18:36:10.105Z,17.93
2023-05-19T18:38:36.782Z,17.80
2023-05-19T18:41:03.380Z,17.62
2023-05-19T18:43:32.359Z,17.53
2023-05-19T18:45:59.086Z,17.53
2023-05-19T18:48:25.922Z,17.44
2023-05-19T18:50:52.735Z,17.37
2023-05-19T18:53:21.279Z,17.30
2023-05-19T18:55:47.939Z,17.17
2023-05-19T18:58:18.404Z,17.10
2023-05-19T19:00:45.324Z,17.05
2023-05-19T19:03:12.188Z,16.97
2023-05-19T19:05:39.863Z,16.93
2023-05-19T19:08:06.619Z,16.79
2023-05-19T19:10:34.768Z,16.73
2023-05-19T19:13:02.008Z,16.76
2023-05-19T19:15:28.833Z,16.58
2023-05-19T19:17:55.483Z,16.46
2023-05-19T19:20:22.188Z,16.53
2023-05-19T19:22:48.788Z,16.46
2023-05-19T19:25:15.699Z,16.42
2023-05-19T19:27:42.580Z,16.24
2023-05-19T19:30:09.561Z,16.28
2023-05-19T19:32:36.294Z,16.11
2023-05-19T19:35:02.969Z,16.03
2023-05-19T19:37:29.628Z,15.99
2023-05-19T19:39:56.252Z,15.90
2023-05-19T19:42:23.102Z,15.78
2023-05-19T19:44:49.841Z,15.73
2023-05-19T19:47:16.554Z,15.69
2023-05-19T19:49:43.238Z,15.71
2023-05-19T19:52:10.068Z,15.61
2023-05-19T19:54:36.935Z,15.66
2023-05-19T19:57:04.145Z,15.51
2023-05-19T19:59:31.222Z,15.53
2023-05-19T20:01:58.647Z,15.41
2023-05-19T20:04:25.580Z,15.42
2023-05-19T20:06:52.606Z,15.25
2023-05-19T20:09:22.293Z,15.08
2023-05-19T20:11:49.586Z,15.01
2023-05-19T20:14:18.839Z,14.98
2023-05-19T20:16:46.766Z,14.92
2023-05-19T20:19:16.618Z,14.94
2023-05-19T20:21:43.573Z,14.69
2023-05-19T20:24:10.679Z,14.61
2023-05-19T20:26:37.479Z,14.62
2023-05-19T20:29:04.234Z,14.74
2023-05-19T20:31:30.973Z,14.61
2023-05-19T20:33:59.379Z,14.70
2023-05-19T20:36:27.660Z,14.50
2023-05-19T20:38:54.582Z,14.46
2023-05-19T20:41:22.540Z,14.32
2023-05-19T20:43:49.421Z,14.41
2023-05-19T20:46:16.352Z,14.29
2023-05-19T20:48:43.071Z,14.05
2023-05-19T20:51:09.847Z,14.25
2023-05-19T20:53:36.910Z,14.14
2023-05-19T20:56:05.553Z,13.91
2023-05-19T20:58:32.665Z,13.77
2023-05-19T21:00:59.644Z,13.85
2023-05-19T21:03:30.370Z,13.84
2023-05-19T21:05:57.281Z,13.64
2023-05-19T21:08:25.655Z,13.73
2023-05-19T21:10:52.729Z,13.69
2023-05-19T21:13:24.965Z,13.66
2023-05-19T21:15:51.953Z,13.61
2023-05-19T21:18:21.387Z,13.68
2023-05-19T21:20:48.520Z,13.55
2023-05-19T21:23:15.412Z,13.50
2023-05-19T21:25:44.517Z,13.53
2023-05-19T21:28:11.963Z,13.42
2023-05-19T21:30:38.621Z,13.42
2023-05-19T21:33:05.421Z,13.54
2023-05-19T21:35:32.291Z,13.43
2023-05-19T21:38:03.910Z,13.28
2023-05-19T21:40:37.798Z,13.25
2023-05-19T21:43:06.057Z,13.15
2023-05-19T21:45:32.786Z,13.26
2023-05-19T21:47:59.574Z,13.29
2023-05-19T21:50:27.086Z,13.31
2023-05-19T21:52:54.039Z,13.37
2023-05-19T21:55:32.100Z,13.19
2023-05-19T21:58:00.871Z,13.21
2023-05-19T22:00:33.255Z,13.12
2023-05-19T22:03:00.788Z,13.17
2023-05-19T22:05:30.383Z,13.32
2023-05-19T22:07:57.628Z,13.29
2023-05-19T22:10:24.447Z,13.12
2023-05-19T22:12:51.418Z,13.19
2023-05-19T22:15:18.590Z,13.08
2023-05-19T22:17:45.627Z,12.97
2023-05-19T22:20:12.673Z,13.22
2023-05-19T22:22:39.608Z,13.09
2023-05-19T22:25:06.981Z,12.99
2023-05-19T22:27:33.994Z,13.01
2023-05-19T22:30:01.026Z,12.98
2023-05-19T22:32:28.017Z,12.83
2023-05-19T22:34:55.009Z,12.77
2023-05-19T22:37:23.920Z,12.60
2023-05-19T22:39:51.495Z,12.80
2023-05-19T22:42:18.724Z,12.68
2023-05-19T22:44:45.880Z,12.72
2023-05-19T22:47:13.950Z,12.61
2023-05-19T22:49:41.567Z,12.62
2023-05-19T22:52:10.526Z,12.59
2023-05-19T22:54:37.707Z,12.52
2023-05-19T22:57:05.156Z,12.49
2023-05-19T22:59:32.071Z,12.46
2023-05-19T23:01:58.717Z,12.44
2023-05-19T23:04:25.325Z,12.41
2023-05-19T23:06:52.444Z,12.42
2023-05-19T23:09:19.192Z,12.36
2023-05-19T23:11:46.249Z,12.40
2023-05-19T23:14:13.115Z,12.38
2023-05-19T23:16:40.313Z,12.48
2023-05-19T23:19:07.189Z,12.43
2023-05-19T23:21:33.955Z,12.44
2023-05-19T23:24:00.652Z,12.43
2023-05-19T23:26:27.412Z,12.47
2023-05-19T23:28:54.033Z,12.54
2023-05-19T23:31:20.646Z,12.47
2023-05-19T23:33:47.459Z,12.52
2023-05-19T23:36:14.514Z,12.44
2023-05-19T23:38:41.255Z,12.32
2023-05-19T23:41:08.388Z,12.39
2023-05-19T23:43:35.129Z,12.45
2023-05-19T23:46:01.940Z,12.37
2023-05-19T23:48:29.449Z,12.41
2023-05-19T23:50:57.464Z,12.37
2023-05-19T23:53:24.582Z,12.32
2023-05-19T23:55:51.678Z,12.26
2023-05-19T23:58:19.098Z,12.20
